Time;durP1;ratioP1;P1;durP2;ratioP2;P2;SDS_P1;SDS_P2;PMS_P1;PMS_P2;Temp;Humidity;BMP_temperature;BMP_pressure;BME280_temperature;BME280_humidity;BME280_pressure;Samples;Min_cycle;Max_cycle;Signal;HPM_P1;HPM_P2
2023/01/27 03:02:03;;;;;;;27.50;24.50;;;-0.20;99.90;;;;;;5299685;23;20491;-76
2023/01/27 03:04:30;;;;;;;27.30;24.50;;;-0.30;99.90;;;;;;4923256;29;20453;-77
2023/01/27 03:06:58;;;;;;;28.47;25.47;;;-0.30;99.90;;;;;;4922349;29;20439;-77
2023/01/27 03:09:27;;;;;;;27.53;24.60;;;-0.30;99.90;;;;;;4924336;29;20458;-77
2023/01/27 03:20:09;;;;;;;27.13;23.97;;;-0.20;99.90;;;;;;4921527;29;20857;-77
2023/01/27 03:22:36;;;;;;;28.90;25.00;;;-0.30;99.90;;;;;;4924954;29;20488;-76
2023/01/27 03:25:04;;;;;;;29.23;25.37;;;-0.20;99.90;;;;;;4924749;29;20456;-77
2023/01/27 03:27:31;;;;;;;29.23;25.40;;;-0.30;99.90;;;;;;4916229;29;20465;-77
2023/01/27 03:30:22;;;;;;;30.30;26.37;;;-0.30;99.90;;;;;;4925646;29;20539;-77
2023/01/27 03:33:07;;;;;;;26.90;23.97;;;-0.20;99.90;;;;;;4924588;29;20468;-77
2023/01/27 03:47:04;;;;;;;33.63;27.77;;;-0.20;99.90;;;;;;4921451;29;20833;-77
2023/01/27 03:49:32;;;;;;;29.83;26.57;;;-0.20;99.90;;;;;;4926540;29;20444;-82
2023/01/27 03:51:59;;;;;;;31.97;27.33;;;-0.20;99.90;;;;;;4926725;29;20483;-81
2023/01/27 03:54:26;;;;;;;30.53;26.90;;;-0.20;99.90;;;;;;4920858;29;20460;-78
2023/01/27 03:56:53;;;;;;;34.93;29.37;;;-0.20;99.90;;;;;;4917051;29;20506;-77
2023/01/27 03:59:20;;;;;;;32.77;27.80;;;-0.20;99.90;;;;;;4915788;29;20514;-79
2023/01/27 04:01:46;;;;;;;29.83;26.63;;;-0.20;99.90;;;;;;4914859;29;20559;-77
2023/01/27 04:07:01;;;;;;;32.73;27.67;;;-0.10;99.90;;;;;;4911736;29;20460;-77
2023/01/27 04:09:30;;;;;;;30.87;27.27;;;-0.20;99.90;;;;;;4926967;29;20527;-77
2023/01/27 04:11:58;;;;;;;30.17;26.97;;;-0.20;99.90;;;;;;4916678;29;20466;-77
2023/01/27 04:14:27;;;;;;;32.50;28.03;;;-0.20;99.90;;;;;;4923745;29;20444;-78
2023/01/27 04:16:56;;;;;;;30.20;26.97;;;-0.20;99.90;;;;;;4925252;29;20513;-77
2023/01/27 04:19:24;;;;;;;30.33;27.17;;;-0.20;99.90;;;;;;4928920;29;20535;-78
2023/01/27 04:21:52;;;;;;;31.87;27.40;;;-0.20;99.90;;;;;;4927457;29;20529;-81
2023/01/27 04:24:24;;;;;;;33.63;28.43;;;-0.20;99.90;;;;;;4921670;29;20462;-80
2023/01/27 04:26:54;;;;;;;32.40;26.67;;;-0.20;99.90;;;;;;4916154;29;20875;-80
2023/01/27 04:29:23;;;;;;;30.10;26.80;;;-0.20;99.90;;;;;;4921879;29;20523;-79
2023/01/27 04:31:50;;;;;;;30.27;27.03;;;-0.20;99.90;;;;;;4931083;29;20864;-80
2023/01/27 04:34:17;;;;;;;31.40;27.00;;;-0.30;99.90;;;;;;4927939;29;20453;-77
2023/01/27 04:36:44;;;;;;;35.53;30.67;;;-0.20;99.90;;;;;;4923476;29;20457;-77
2023/01/27 04:39:11;;;;;;;30.97;27.73;;;-0.20;99.90;;;;;;4930739;29;20486;-77
2023/01/27 04:41:40;;;;;;;31.50;28.10;;;-0.20;99.90;;;;;;4931991;29;20482;-78
2023/01/27 04:44:07;;;;;;;33.60;28.60;;;-0.30;99.90;;;;;;4930637;29;20550;-78
2023/01/27 04:46:34;;;;;;;36.97;29.20;;;-0.20;99.90;;;;;;4934010;29;20451;-77
2023/01/27 04:49:02;;;;;;;33.43;28.33;;;-0.20;99.90;;;;;;4929178;29;20985;-77
2023/01/27 04:51:29;;;;;;;34.03;27.90;;;-0.20;99.90;;;;;;4920800;29;20467;-77
2023/01/27 04:53:56;;;;;;;33.70;28.80;;;-0.20;99.90;;;;;;4924130;29;20464;-81
2023/01/27 04:56:28;;;;;;;34.50;29.53;;;-0.20;99.90;;;;;;4924087;29;20475;-79
2023/01/27 04:58:58;;;;;;;32.07;26.77;;;-0.20;99.90;;;;;;4928715;29;20784;-79
2023/01/27 05:01:25;;;;;;;32.47;27.73;;;-0.10;99.90;;;;;;4929272;29;20478;-80
2023/01/27 05:03:52;;;;;;;34.47;26.80;;;-0.10;99.90;;;;;;4936214;29;20475;-80
2023/01/27 05:06:19;;;;;;;31.37;27.70;;;-0.10;99.90;;;;;;4928615;29;20439;-80
2023/01/27 05:08:46;;;;;;;32.63;29.10;;;-0.10;99.90;;;;;;4909164;29;20520;-79
2023/01/27 05:11:13;;;;;;;31.57;28.17;;;-0.10;99.90;;;;;;4919960;29;20464;-80
2023/01/27 05:13:41;;;;;;;35.60;30.03;;;-0.10;99.90;;;;;;4933373;29;20462;-76
2023/01/27 05:16:12;;;;;;;34.83;28.60;;;-0.10;99.90;;;;;;4924735;29;21056;-76
2023/01/27 05:18:40;;;;;;;36.10;29.83;;;-0.10;99.90;;;;;;4927266;29;20461;-77
2023/01/27 05:21:08;;;;;;;34.27;27.73;;;-0.10;99.90;;;;;;4925913;29;20754;-77
2023/01/27 05:23:35;;;;;;;32.13;27.80;;;-0.10;99.90;;;;;;4927919;29;20444;-77
2023/01/27 05:26:04;;;;;;;31.73;26.73;;;-0.10;99.90;;;;;;4927787;29;20482;-76
2023/01/27 05:28:30;;;;;;;31.33;26.10;;;-0.20;99.90;;;;;;4924507;29;20445;-77
2023/01/27 05:31:01;;;;;;;29.97;26.27;;;-0.30;99.90;;;;;;4927575;29;20532;-77
2023/01/27 05:33:29;;;;;;;32.37;25.63;;;-0.30;99.90;;;;;;4915169;29;21057;-77
2023/01/27 05:35:59;;;;;;;32.00;26.20;;;-0.30;99.90;;;;;;4924390;29;20442;-76
2023/01/27 05:38:26;;;;;;;26.60;23.87;;;-0.30;99.90;;;;;;4931031;29;20435;-77
2023/01/27 05:40:56;;;;;;;29.77;25.27;;;-0.30;99.90;;;;;;4929033;29;20546;-77
2023/01/27 05:43:23;;;;;;;28.53;25.53;;;-0.30;99.90;;;;;;4930253;29;20441;-77
2023/01/27 05:45:50;;;;;;;31.63;25.27;;;-0.40;99.90;;;;;;4929558;29;20918;-77
2023/01/27 05:48:17;;;;;;;32.57;25.13;;;-0.30;99.90;;;;;;4925951;29;20444;-77
2023/01/27 05:50:54;;;;;;;26.97;24.17;;;-0.40;99.90;;;;;;4932654;29;20492;-76
2023/01/27 05:53:21;;;;;;;27.03;24.23;;;-0.30;99.90;;;;;;4928442;29;20537;-77
2023/01/27 05:55:48;;;;;;;27.80;24.80;;;-0.30;99.90;;;;;;4927088;29;20464;-77
2023/01/27 05:58:15;;;;;;;26.57;23.60;;;-0.30;99.90;;;;;;4928338;29;20498;-77
2023/01/27 06:00:42;;;;;;;26.07;23.33;;;-0.30;99.90;;;;;;4925227;29;20502;-78
2023/01/27 06:03:09;;;;;;;26.07;23.37;;;-0.30;99.90;;;;;;4931756;29;20933;-77
2023/01/27 06:05:36;;;;;;;27.07;24.33;;;-0.40;99.90;;;;;;4930224;29;20929;-77
2023/01/27 06:08:04;;;;;;;25.97;23.20;;;-0.30;99.90;;;;;;4924937;29;20544;-76
2023/01/27 06:10:35;;;;;;;27.30;24.53;;;-0.30;99.90;;;;;;4927453;29;20431;-76
2023/01/27 06:13:03;;;;;;;25.50;22.90;;;-0.20;99.90;;;;;;4925597;29;20992;-76
2023/01/27 06:15:31;;;;;;;27.33;24.73;;;-0.20;99.90;;;;;;4925642;29;20444;-77
2023/01/27 06:17:57;;;;;;;26.47;23.83;;;-0.30;99.90;;;;;;4926491;29;20447;-77
2023/01/27 06:20:25;;;;;;;26.43;23.73;;;-0.30;99.90;;;;;;4925116;29;20835;-77
2023/01/27 06:22:52;;;;;;;25.57;23.00;;;-0.30;99.90;;;;;;4928893;29;20435;-78
2023/01/27 06:25:20;;;;;;;26.07;23.10;;;-0.30;99.90;;;;;;4922144;29;20486;-77
2023/01/27 06:27:47;;;;;;;24.87;22.23;;;-0.20;99.90;;;;;;4926308;29;20463;-76
2023/01/27 06:30:14;;;;;;;25.17;22.50;;;-0.30;99.90;;;;;;4927203;29;20996;-77
2023/01/27 06:32:41;;;;;;;26.57;23.77;;;-0.20;99.90;;;;;;4924689;29;20929;-77
2023/01/27 06:35:08;;;;;;;25.90;23.20;;;-0.30;99.90;;;;;;4921408;29;21034;-77
2023/01/27 06:37:35;;;;;;;26.63;23.77;;;-0.30;99.90;;;;;;4923691;29;20456;-77
2023/01/27 06:40:02;;;;;;;27.07;24.13;;;-0.40;99.90;;;;;;4924248;29;20485;-77
2023/01/27 06:42:36;;;;;;;27.03;24.13;;;-0.40;99.90;;;;;;4927025;29;21023;-78
2023/01/27 06:45:03;;;;;;;25.77;23.10;;;-0.40;99.90;;;;;;4919284;29;20456;-77
2023/01/27 06:47:30;;;;;;;25.67;22.97;;;-0.30;99.90;;;;;;4918529;29;20894;-77
2023/01/27 06:49:56;;;;;;;26.90;24.17;;;-0.30;99.90;;;;;;4924655;29;20937;-77
2023/01/27 06:52:23;;;;;;;29.03;25.67;;;-0.30;99.90;;;;;;4917981;29;21026;-77
2023/01/27 06:54:50;;;;;;;29.17;25.33;;;-0.30;99.90;;;;;;4919395;29;20440;-77
2023/01/27 06:57:17;;;;;;;27.57;24.87;;;-0.20;99.90;;;;;;4926373;29;20437;-77
2023/01/27 06:59:45;;;;;;;28.50;25.40;;;-0.30;99.90;;;;;;4929312;29;20479;-77
2023/01/27 07:02:12;;;;;;;28.17;25.13;;;-0.30;99.90;;;;;;4929449;29;20503;-77
2023/01/27 07:04:39;;;;;;;27.53;24.63;;;-0.30;99.90;;;;;;4919976;29;20463;-77
2023/01/27 07:07:06;;;;;;;29.27;26.13;;;-0.30;99.90;;;;;;4915479;29;20883;-76
2023/01/27 07:09:33;;;;;;;27.30;24.40;;;-0.30;99.90;;;;;;4916041;29;20457;-78
2023/01/27 07:11:59;;;;;;;26.93;24.13;;;-0.30;99.90;;;;;;4916654;29;20569;-79
2023/01/27 07:14:26;;;;;;;26.77;24.17;;;-0.30;99.90;;;;;;4912317;29;21032;-83
2023/01/27 07:16:54;;;;;;;26.63;23.93;;;-0.30;99.90;;;;;;4916335;29;20447;-83
2023/01/27 07:19:21;;;;;;;28.27;25.37;;;-0.20;99.90;;;;;;4926475;29;20540;-84
2023/01/27 07:21:48;;;;;;;32.13;27.93;;;-0.20;99.90;;;;;;4926025;29;20882;-81
2023/01/27 07:24:15;;;;;;;30.53;26.50;;;-0.20;99.90;;;;;;4926322;29;20483;-80
2023/01/27 07:26:43;;;;;;;28.33;25.37;;;-0.30;99.90;;;;;;4930068;29;20962;-81
2023/01/27 07:29:10;;;;;;;28.37;25.37;;;-0.30;99.90;;;;;;4925204;29;20467;-81
2023/01/27 07:31:37;;;;;;;28.47;25.23;;;-0.20;99.90;;;;;;4926052;29;20471;-81
2023/01/27 07:34:05;;;;;;;27.70;24.80;;;-0.30;99.90;;;;;;4928814;29;20451;-82
2023/01/27 07:36:32;;;;;;;27.93;25.10;;;-0.30;99.90;;;;;;4927114;29;20499;-84
2023/01/27 07:38:59;;;;;;;29.47;26.37;;;-0.20;99.90;;;;;;4927453;29;20468;-84
2023/01/27 07:41:26;;;;;;;32.73;28.13;;;-0.20;99.90;;;;;;4925432;29;20556;-80
2023/01/27 07:43:52;;;;;;;32.20;28.03;;;-0.30;99.90;;;;;;4927125;29;20452;-81
2023/01/27 07:46:19;;;;;;;30.07;26.83;;;-0.30;99.90;;;;;;4924249;29;20467;-81
2023/01/27 07:48:46;;;;;;;32.07;28.33;;;-0.30;99.90;;;;;;4924849;29;20456;-80
2023/01/27 07:51:15;;;;;;;33.67;29.23;;;-0.30;99.90;;;;;;4920925;29;20469;-81
2023/01/27 07:53:42;;;;;;;35.47;28.33;;;-0.30;99.90;;;;;;4929835;29;20484;-80
2023/01/27 07:56:10;;;;;;;34.80;29.13;;;-0.20;99.90;;;;;;4926590;29;20448;-78
2023/01/27 07:58:38;;;;;;;32.30;28.83;;;-0.20;99.90;;;;;;4910724;29;20484;-78
2023/01/27 08:01:06;;;;;;;32.23;28.73;;;-0.10;99.90;;;;;;4915434;29;20487;-77
2023/01/27 08:03:33;;;;;;;31.90;28.50;;;-0.20;99.90;;;;;;4915925;29;20459;-78
2023/01/27 08:06:04;;;;;;;31.70;28.33;;;-0.20;99.90;;;;;;4920156;29;20543;-77
2023/01/27 08:08:32;;;;;;;31.50;27.43;;;-0.20;99.90;;;;;;4921135;29;20518;-77
2023/01/27 08:11:00;;;;;;;31.67;28.23;;;-0.20;99.90;;;;;;4919518;29;20476;-78
2023/01/27 08:13:27;;;;;;;31.23;27.47;;;-0.10;99.90;;;;;;4937138;29;20451;-78
2023/01/27 08:15:57;;;;;;;30.77;27.00;;;-0.10;99.90;;;;;;4922817;29;20873;-77
2023/01/27 08:18:25;;;;;;;30.43;27.23;;;-0.10;99.90;;;;;;4924275;29;20972;-77
2023/01/27 08:20:53;;;;;;;31.90;28.00;;;-0.10;99.90;;;;;;4920483;29;20521;-76
2023/01/27 08:23:21;;;;;;;31.67;27.97;;;0.00;99.90;;;;;;4908408;29;20499;-78
2023/01/27 08:25:53;;;;;;;32.67;28.37;;;0.00;99.90;;;;;;4917283;29;20492;-77
2023/01/27 08:28:22;;;;;;;31.63;27.67;;;0.00;99.90;;;;;;4918418;29;20480;-76
2023/01/27 08:30:50;;;;;;;31.37;28.00;;;0.00;99.90;;;;;;4919134;29;20546;-77
2023/01/27 08:33:18;;;;;;;31.87;28.23;;;0.00;99.90;;;;;;4904709;29;20450;-77
2023/01/27 08:35:45;;;;;;;30.33;27.03;;;0.00;99.90;;;;;;4903287;29;21002;-77
2023/01/27 08:38:14;;;;;;;30.27;26.97;;;0.00;99.90;;;;;;4906348;29;20442;-78
2023/01/27 08:40:41;;;;;;;32.27;27.17;;;0.00;99.90;;;;;;4911823;29;20526;-78
2023/01/27 08:43:10;;;;;;;31.00;27.40;;;0.10;99.90;;;;;;4904664;29;20494;-77
2023/01/27 08:45:38;;;;;;;30.67;26.50;;;0.00;99.90;;;;;;4915086;29;20461;-77
2023/01/27 08:48:05;;;;;;;31.80;26.17;;;0.10;99.90;;;;;;4916955;29;20479;-77
2023/01/27 08:50:32;;;;;;;32.17;26.60;;;0.10;99.90;;;;;;4909059;29;20535;-76
2023/01/27 08:53:00;;;;;;;29.50;26.50;;;0.10;99.90;;;;;;4917654;29;20454;-77
2023/01/27 08:55:27;;;;;;;27.90;24.97;;;0.20;99.90;;;;;;4906931;29;20518;-77
2023/01/27 08:57:54;;;;;;;26.93;24.03;;;0.20;99.90;;;;;;4906693;29;20454;-77
2023/01/27 09:00:23;;;;;;;26.10;23.50;;;0.20;99.90;;;;;;4908079;29;20512;-77
2023/01/27 09:02:50;;;;;;;29.50;24.50;;;0.20;99.90;;;;;;4907641;29;20462;-77
2023/01/27 09:05:17;;;;;;;26.70;23.53;;;0.20;99.90;;;;;;4911289;29;20464;-77
2023/01/27 09:07:44;;;;;;;25.93;23.33;;;0.20;99.90;;;;;;4920594;29;20881;-77
2023/01/27 09:10:12;;;;;;;24.27;21.67;;;0.20;99.90;;;;;;4925629;29;20451;-78
2023/01/27 09:12:43;;;;;;;24.80;22.20;;;0.20;99.90;;;;;;4913173;29;20467;-72
2023/01/27 09:15:11;;;;;;;23.93;21.57;;;0.30;99.90;;;;;;4908247;29;20448;-77
2023/01/27 09:17:40;;;;;;;25.77;23.03;;;0.30;99.90;;;;;;4918375;29;20511;-77
2023/01/27 09:20:08;;;;;;;24.60;22.07;;;0.40;99.90;;;;;;4918751;29;20586;-77
2023/01/27 09:22:36;;;;;;;26.40;23.60;;;0.20;99.90;;;;;;4918977;29;20469;-78
2023/01/27 09:25:03;;;;;;;25.03;22.43;;;0.20;99.90;;;;;;4921279;29;20462;-77
2023/01/27 09:27:29;;;;;;;24.73;22.07;;;0.20;99.90;;;;;;4909548;29;20461;-76
2023/01/27 09:29:56;;;;;;;26.50;23.17;;;0.20;99.90;;;;;;4919882;29;20454;-77
2023/01/27 09:32:23;;;;;;;26.00;22.67;;;0.20;99.90;;;;;;4909807;29;20469;-77
2023/01/27 09:34:51;;;;;;;25.27;22.77;;;0.20;99.90;;;;;;4924400;29;20495;-80
2023/01/27 09:37:18;;;;;;;24.87;22.37;;;0.20;99.90;;;;;;4917254;29;20825;-79
2023/01/27 09:39:49;;;;;;;26.73;23.93;;;0.30;99.90;;;;;;4910522;29;20982;-82
2023/01/27 09:42:37;;;;;;;25.43;22.83;;;0.20;99.90;;;;;;4924987;29;20474;-82
2023/01/27 09:45:20;;;;;;;24.63;22.20;;;0.30;99.90;;;;;;4922962;29;20482;-82
2023/01/27 09:48:11;;;;;;;23.70;21.33;;;0.30;99.90;;;;;;4910610;29;20453;-85
2023/01/27 09:50:44;;;;;;;23.40;21.20;;;0.40;99.90;;;;;;4921792;29;20448;-77
2023/01/27 09:53:47;;;;;;;23.80;21.40;;;0.40;99.90;;;;;;4907740;29;20470;-77
2023/01/27 09:56:22;;;;;;;24.00;21.67;;;0.40;99.90;;;;;;4911193;29;20873;-76
2023/01/27 09:59:09;;;;;;;23.60;21.30;;;0.40;99.90;;;;;;4926346;29;20444;-77
2023/01/27 10:01:46;;;;;;;22.23;20.33;;;0.40;99.90;;;;;;4918221;29;21011;-76
2023/01/27 10:04:35;;;;;;;22.87;20.57;;;0.40;99.90;;;;;;4927875;29;20445;-77
2023/01/27 10:07:28;;;;;;;21.87;19.87;;;0.40;99.90;;;;;;4929237;29;20456;-81
2023/01/27 10:10:06;;;;;;;23.10;20.80;;;0.30;99.90;;;;;;4920546;29;20865;-76
2023/01/27 10:12:43;;;;;;;22.40;20.07;;;0.30;99.90;;;;;;4919722;29;20891;-76
2023/01/27 10:15:24;;;;;;;21.90;19.77;;;0.50;99.90;;;;;;4927110;29;20457;-77
2023/01/27 10:17:59;;;;;;;22.27;19.97;;;0.50;99.90;;;;;;4928530;29;20978;-77
2023/01/27 10:20:35;;;;;;;20.57;18.80;;;0.60;99.90;;;;;;4928415;29;20471;-76
2023/01/27 10:23:20;;;;;;;20.20;18.30;;;0.60;99.90;;;;;;4918643;29;20450;-77
2023/01/27 10:25:56;;;;;;;20.63;18.77;;;0.50;99.90;;;;;;4921812;29;20441;-77
2023/01/27 10:28:24;;;;;;;20.10;18.20;;;0.60;99.90;;;;;;4927146;29;20515;-78
2023/01/27 10:30:59;;;;;;;20.33;18.43;;;0.60;99.90;;;;;;4919739;29;20473;-76
2023/01/27 10:33:40;;;;;;;21.17;19.20;;;0.50;99.90;;;;;;4931451;29;20461;-77
2023/01/27 10:36:13;;;;;;;21.47;19.30;;;0.30;99.90;;;;;;4926039;29;20470;-77
2023/01/27 10:38:47;;;;;;;21.33;19.43;;;0.30;99.90;;;;;;4928246;29;20964;-78
2023/01/27 10:41:23;;;;;;;23.03;20.83;;;0.30;99.90;;;;;;4916283;29;21030;-82
2023/01/27 10:44:02;;;;;;;23.47;21.10;;;0.20;99.90;;;;;;4921744;29;20457;-80
2023/01/27 10:46:38;;;;;;;22.80;20.53;;;0.20;99.90;;;;;;4920796;29;20441;-78
2023/01/27 10:49:11;;;;;;;22.37;20.23;;;0.20;99.90;;;;;;4923679;29;20436;-77
2023/01/27 10:51:41;;;;;;;24.83;22.20;;;0.20;99.90;;;;;;4925009;29;20503;-78
2023/01/27 10:54:14;;;;;;;25.57;22.87;;;0.20;99.90;;;;;;4926060;29;20514;-76
2023/01/27 10:56:44;;;;;;;23.83;21.40;;;0.10;99.90;;;;;;4926357;29;20501;-77
2023/01/27 10:59:16;;;;;;;23.67;21.33;;;0.20;99.90;;;;;;4924567;29;20799;-78
2023/01/27 11:01:48;;;;;;;23.97;21.37;;;0.30;99.90;;;;;;4927687;29;20877;-76
2023/01/27 11:04:30;;;;;;;24.73;22.33;;;0.40;99.90;;;;;;4915441;29;20463;-81
2023/01/27 11:06:58;;;;;;;23.80;21.40;;;0.40;99.90;;;;;;4930360;29;20855;-81
2023/01/27 11:09:30;;;;;;;27.30;24.03;;;0.40;99.90;;;;;;4924044;29;20487;-81
2023/01/27 11:12:02;;;;;;;25.67;23.13;;;0.40;99.90;;;;;;4924179;29;20468;-82
2023/01/27 11:14:32;;;;;;;26.90;24.20;;;0.40;99.90;;;;;;4914876;29;20441;-81
2023/01/27 11:17:10;;;;;;;25.90;23.17;;;0.40;99.90;;;;;;4926070;29;20487;-81
2023/01/27 11:19:44;;;;;;;27.93;23.37;;;0.30;99.90;;;;;;4918048;29;20445;-81
2023/01/27 11:22:20;;;;;;;26.70;22.83;;;0.40;99.90;;;;;;4930170;29;20538;-81
2023/01/27 11:24:57;;;;;;;26.63;23.27;;;0.50;99.90;;;;;;4931672;29;20438;-81
2023/01/27 11:27:36;;;;;;;26.47;23.40;;;0.50;99.90;;;;;;4927045;29;20507;-81
2023/01/27 11:30:11;;;;;;;29.63;24.20;;;0.50;99.90;;;;;;4928618;29;20519;-83
2023/01/27 11:32:54;;;;;;;24.70;22.07;;;0.50;99.90;;;;;;4925828;29;20464;-80
2023/01/27 11:35:22;;;;;;;29.80;23.27;;;0.50;99.90;;;;;;4928023;29;20981;-81
2023/01/27 11:37:51;;;;;;;27.60;23.67;;;0.50;99.90;;;;;;4929435;29;20546;-81
2023/01/27 11:40:23;;;;;;;25.70;22.63;;;0.60;99.90;;;;;;4924448;29;20487;-76
2023/01/27 11:42:50;;;;;;;24.07;21.50;;;0.70;99.90;;;;;;4915465;29;20556;-77
2023/01/27 11:45:20;;;;;;;25.47;22.63;;;0.70;99.90;;;;;;4924367;29;20479;-77
2023/01/27 11:47:50;;;;;;;25.60;22.83;;;0.70;99.90;;;;;;4920765;29;20470;-77
2023/01/27 11:50:20;;;;;;;24.03;21.17;;;0.80;99.90;;;;;;4922575;29;20457;-77
2023/01/27 11:52:51;;;;;;;25.40;22.70;;;0.90;99.90;;;;;;4924785;29;20458;-76
2023/01/27 11:55:23;;;;;;;25.60;22.33;;;0.90;99.90;;;;;;4925565;29;20504;-77
2023/01/27 11:57:55;;;;;;;23.10;20.70;;;1.00;99.90;;;;;;4918825;29;20818;-77
2023/01/27 12:00:25;;;;;;;25.80;23.00;;;1.00;99.90;;;;;;4930018;29;20936;-77
2023/01/27 12:03:03;;;;;;;24.70;21.97;;;1.20;99.90;;;;;;4923688;29;20546;-77
2023/01/27 12:05:34;;;;;;;24.50;21.90;;;1.20;99.90;;;;;;4917033;29;20518;-76
2023/01/27 12:08:03;;;;;;;23.23;20.93;;;1.20;99.90;;;;;;4910283;29;20467;-76
2023/01/27 12:10:33;;;;;;;22.73;20.13;;;1.20;99.90;;;;;;4908453;29;20452;-77
2023/01/27 12:13:07;;;;;;;22.93;20.63;;;1.10;99.90;;;;;;4914892;29;21022;-77
2023/01/27 12:15:35;;;;;;;22.03;19.83;;;1.00;99.90;;;;;;4918421;29;20846;-77
2023/01/27 12:18:08;;;;;;;22.63;20.43;;;1.00;99.90;;;;;;4920466;29;20467;-77
2023/01/27 12:20:39;;;;;;;24.37;22.03;;;1.10;99.90;;;;;;4909589;29;20917;-77
2023/01/27 12:23:18;;;;;;;22.80;20.50;;;1.10;99.90;;;;;;4912921;29;20444;-77
2023/01/27 12:25:52;;;;;;;21.33;19.27;;;1.00;99.90;;;;;;4920088;29;20450;-77
2023/01/27 12:28:25;;;;;;;21.93;19.57;;;1.10;99.90;;;;;;4926509;29;20440;-77
2023/01/27 12:30:54;;;;;;;21.77;19.57;;;1.20;99.90;;;;;;4929065;29;20585;-77
2023/01/27 12:33:25;;;;;;;21.00;19.07;;;1.20;99.90;;;;;;4926418;29;20808;-77
2023/01/27 12:35:57;;;;;;;22.03;19.40;;;1.30;99.90;;;;;;4929930;29;20983;-77
2023/01/27 12:38:26;;;;;;;21.70;19.60;;;1.30;99.90;;;;;;4926481;29;20474;-77
2023/01/27 12:40:59;;;;;;;22.37;20.23;;;1.30;99.90;;;;;;4928776;29;20917;-76
2023/01/27 12:43:26;;;;;;;22.23;20.07;;;1.30;99.90;;;;;;4914695;29;20456;-77
2023/01/27 12:46:17;;;;;;;20.97;19.00;;;1.20;99.90;;;;;;4926775;29;20669;-77
2023/01/27 12:48:48;;;;;;;21.07;19.10;;;1.10;99.90;;;;;;4919682;29;20445;-77
2023/01/27 12:51:18;;;;;;;21.93;19.87;;;1.20;99.90;;;;;;4931709;29;20480;-76
2023/01/27 12:53:47;;;;;;;21.60;19.60;;;1.10;99.90;;;;;;4935788;29;20758;-77
2023/01/27 12:56:17;;;;;;;23.07;20.77;;;1.10;99.90;;;;;;4933760;29;20471;-77
2023/01/27 12:58:46;;;;;;;22.03;19.73;;;1.10;99.90;;;;;;4935291;29;20446;-76
2023/01/27 13:01:24;;;;;;;24.80;20.67;;;1.10;99.90;;;;;;4934376;29;20494;-76
2023/01/27 13:03:53;;;;;;;22.67;20.43;;;1.10;99.90;;;;;;4935705;29;20441;-77
2023/01/27 13:06:30;;;;;;;20.80;18.80;;;1.00;99.90;;;;;;4933211;29;20448;-77
2023/01/27 13:08:59;;;;;;;19.80;17.87;;;1.10;99.90;;;;;;4935857;29;20431;-77
2023/01/27 13:11:37;;;;;;;20.80;18.83;;;1.10;99.90;;;;;;4935428;29;20459;-77
2023/01/27 13:14:08;;;;;;;21.90;19.63;;;1.20;99.90;;;;;;4936724;29;20922;-77
2023/01/27 13:16:35;;;;;;;21.93;19.83;;;1.30;99.90;;;;;;4930718;29;20467;-79
2023/01/27 13:19:02;;;;;;;21.90;19.60;;;1.30;99.90;;;;;;4937203;29;20209;-80
2023/01/27 13:21:33;;;;;;;21.17;19.10;;;1.20;99.90;;;;;;4935964;29;20561;-80
2023/01/27 13:24:02;;;;;;;22.23;20.03;;;1.20;99.90;;;;;;4936430;29;20856;-80
2023/01/27 13:26:33;;;;;;;22.43;20.13;;;1.20;99.90;;;;;;4936155;29;20463;-79
2023/01/27 13:29:09;;;;;;;20.07;18.30;;;1.20;99.90;;;;;;4934588;29;20479;-78
2023/01/27 13:31:44;;;;;;;21.20;19.07;;;1.30;99.90;;;;;;4928782;29;20232;-79
2023/01/27 13:34:25;;;;;;;21.63;19.53;;;1.20;99.90;;;;;;4929934;29;20505;-80
2023/01/27 13:36:59;;;;;;;22.23;19.67;;;1.20;99.90;;;;;;4927311;29;20466;-82
2023/01/27 13:39:42;;;;;;;20.90;18.80;;;1.20;99.90;;;;;;4930116;29;20431;-80
2023/01/27 13:42:16;;;;;;;20.23;18.33;;;1.20;99.90;;;;;;4925338;29;20911;-80
2023/01/27 13:44:48;;;;;;;21.70;19.53;;;1.20;99.90;;;;;;4928159;29;20455;-81
2023/01/27 13:47:19;;;;;;;20.63;18.67;;;1.20;99.90;;;;;;4925982;29;20211;-80
2023/01/27 13:49:50;;;;;;;21.80;19.70;;;1.20;99.90;;;;;;4927264;29;20599;-80
2023/01/27 13:52:17;;;;;;;22.07;19.93;;;1.10;99.90;;;;;;4927093;29;20474;-81
2023/01/27 13:54:43;;;;;;;20.80;18.83;;;1.10;99.90;;;;;;4929151;29;20493;-81
2023/01/27 13:57:37;;;;;;;20.27;18.17;;;1.10;99.90;;;;;;4927272;29;20885;-81
2023/01/27 14:00:13;;;;;;;20.10;18.00;;;1.00;99.90;;;;;;4930800;29;20447;-80
2023/01/27 14:03:04;;;;;;;19.83;18.03;;;1.10;99.90;;;;;;4923504;29;20482;-81
2023/01/27 14:05:39;;;;;;;20.67;18.63;;;1.10;99.90;;;;;;4916919;29;20531;-79
2023/01/27 14:08:18;;;;;;;19.90;18.03;;;1.10;99.90;;;;;;4921953;29;20467;-76
2023/01/27 14:10:56;;;;;;;22.10;20.00;;;1.10;99.90;;;;;;4924687;29;20478;-77
2023/01/27 14:13:40;;;;;;;20.73;18.83;;;1.10;99.90;;;;;;4910881;29;20458;-78
2023/01/27 14:16:14;;;;;;;21.53;19.37;;;1.10;99.90;;;;;;4916023;29;21004;-81
2023/01/27 14:18:44;;;;;;;22.93;20.63;;;1.10;99.90;;;;;;4925578;29;20522;-80
2023/01/27 14:21:17;;;;;;;21.97;19.73;;;1.00;99.90;;;;;;4916190;29;20559;-80
2023/01/27 14:23:55;;;;;;;23.03;20.57;;;1.00;99.90;;;;;;4926057;29;20459;-80
2023/01/27 14:26:42;;;;;;;23.40;20.97;;;1.00;99.90;;;;;;4916433;29;20475;-81
2023/01/27 14:29:21;;;;;;;21.87;19.80;;;1.00;99.90;;;;;;4916093;29;20459;-81
2023/01/27 14:31:58;;;;;;;22.97;20.47;;;1.00;99.90;;;;;;4917825;29;20999;-83
2023/01/27 14:34:40;;;;;;;22.63;20.30;;;1.00;99.90;;;;;;4929464;29;20826;-81
2023/01/27 14:37:17;;;;;;;21.53;19.43;;;1.00;99.90;;;;;;4922194;29;20876;-81
2023/01/27 14:39:57;;;;;;;22.20;19.90;;;1.00;99.90;;;;;;4927430;29;20986;-77
2023/01/27 14:42:31;;;;;;;21.93;19.83;;;1.00;99.90;;;;;;4927010;29;20470;-78
2023/01/27 14:45:05;;;;;;;21.60;19.53;;;0.90;99.90;;;;;;4930119;29;20446;-77
2023/01/27 14:47:42;;;;;;;22.27;20.10;;;0.80;99.90;;;;;;4917746;29;20445;-77
2023/01/27 14:50:23;;;;;;;21.70;19.60;;;0.90;99.90;;;;;;4927301;29;20453;-77
2023/01/27 14:52:58;;;;;;;21.57;19.47;;;0.90;99.90;;;;;;4926505;29;20836;-78
2023/01/27 14:55:34;;;;;;;22.57;20.50;;;0.90;99.90;;;;;;4925802;29;20928;-77
2023/01/27 14:58:18;;;;;;;22.70;20.30;;;0.90;99.90;;;;;;4927019;29;20510;-76
2023/01/27 15:00:55;;;;;;;22.30;20.03;;;0.90;99.90;;;;;;4923340;29;21063;-76
2023/01/27 15:03:50;;;;;;;21.57;19.37;;;0.90;99.90;;;;;;4927287;29;20878;-77
2023/01/27 15:06:25;;;;;;;22.03;19.90;;;0.90;99.90;;;;;;4928426;29;20436;-76
2023/01/27 15:08:59;;;;;;;22.30;20.10;;;0.90;99.90;;;;;;4927957;29;20462;-76
2023/01/27 15:12:08;;;;;;;24.63;22.03;;;0.90;99.90;;;;;;4924620;29;20475;-77
2023/01/27 15:15:06;;;;;;;25.23;21.90;;;0.90;99.90;;;;;;4920226;29;20478;-78
2023/01/27 15:17:47;;;;;;;25.33;22.67;;;1.00;99.90;;;;;;4919191;29;20519;-76
2023/01/27 15:20:39;;;;;;;23.87;21.37;;;0.90;99.90;;;;;;4922564;29;20526;-78
2023/01/27 15:23:22;;;;;;;23.57;21.00;;;0.90;99.90;;;;;;4916351;29;20531;-76
2023/01/27 15:25:52;;;;;;;22.10;19.90;;;0.90;99.90;;;;;;4924287;29;20443;-79
2023/01/27 15:28:23;;;;;;;23.67;20.97;;;0.90;99.90;;;;;;4928021;29;20837;-79
2023/01/27 15:31:22;;;;;;;26.27;21.90;;;0.90;99.90;;;;;;4928960;29;20529;-77
2023/01/27 15:33:53;;;;;;;30.67;22.93;;;0.90;99.90;;;;;;4923189;29;20453;-78
2023/01/27 15:36:32;;;;;;;31.37;24.47;;;0.90;99.90;;;;;;4924875;29;20792;-79
2023/01/27 15:39:01;;;;;;;27.40;22.77;;;0.90;99.90;;;;;;4932646;29;20455;-78
2023/01/27 15:41:28;;;;;;;31.87;24.47;;;0.80;99.90;;;;;;4920327;29;20896;-76
2023/01/27 15:44:15;;;;;;;27.50;24.33;;;0.80;99.90;;;;;;4929332;29;20831;-76
2023/01/27 15:46:45;;;;;;;30.97;24.43;;;0.80;99.90;;;;;;4921354;29;20829;-78
2023/01/27 15:49:19;;;;;;;29.33;23.60;;;0.80;99.90;;;;;;4915021;29;20439;-79
2023/01/27 15:51:51;;;;;;;26.17;23.20;;;0.80;99.90;;;;;;4915279;29;20996;-79
2023/01/27 15:54:20;;;;;;;27.93;24.33;;;0.80;99.90;;;;;;4926471;29;20443;-79
2023/01/27 15:56:51;;;;;;;31.43;26.00;;;0.80;99.90;;;;;;4925335;29;20971;-78
2023/01/27 15:59:22;;;;;;;33.17;26.47;;;0.70;99.90;;;;;;4925898;29;20477;-77
2023/01/27 16:01:59;;;;;;;28.67;24.97;;;0.70;99.90;;;;;;4915165;29;20488;-78
2023/01/27 16:04:29;;;;;;;32.20;26.83;;;0.70;99.90;;;;;;4919607;29;20827;-78
2023/01/27 16:07:00;;;;;;;34.13;27.07;;;0.70;99.90;;;;;;4933527;29;20536;-78
2023/01/27 16:09:35;;;;;;;34.27;27.27;;;0.60;99.90;;;;;;4928840;29;20474;-77
2023/01/27 16:12:05;;;;;;;32.37;26.33;;;0.60;99.90;;;;;;4929910;29;20477;-78
2023/01/27 16:14:41;;;;;;;35.07;26.93;;;0.60;99.90;;;;;;4927707;29;20454;-76
2023/01/27 16:17:23;;;;;;;34.10;27.23;;;0.60;99.90;;;;;;4925224;29;20497;-76
2023/01/27 16:20:19;;;;;;;37.30;27.10;;;0.60;99.90;;;;;;4927886;29;20468;-76